Time;durP1;ratioP1;P1;durP2;ratioP2;P2;SDS_P1;SDS_P2;PMS_P1;PMS_P2;Temp;Humidity;BMP_temperature;BMP_pressure;BME280_temperature;BME280_humidity;BME280_pressure;Samples;Min_cycle;Max_cycle;Signal;HPM_P1;HPM_P2
2022/07/17 17:40:41;;;;;;;6.43;5.53;;;33.80;43.20;;;;;;5089715;27;20378;-51
2022/07/17 17:43:08;;;;;;;6.22;5.03;;;33.30;45.70;;;;;;5077128;28;20365;-51
2022/07/17 17:45:35;;;;;;;5.00;4.30;;;33.20;44.60;;;;;;5069774;28;20068;-46
2022/07/17 17:48:01;;;;;;;5.35;3.85;;;32.90;45.70;;;;;;5071797;28;20053;-48
2022/07/17 17:50:28;;;;;;;5.05;3.90;;;32.70;45.00;;;;;;5070460;28;20060;-49
2022/07/17 17:52:55;;;;;;;5.38;4.50;;;32.60;46.60;;;;;;5065151;28;20132;-50
2022/07/17 17:55:22;;;;;;;6.35;4.72;;;32.50;46.30;;;;;;5068589;28;20110;-50
2022/07/17 17:57:49;;;;;;;4.50;3.90;;;32.30;44.60;;;;;;5069942;28;20044;-48
2022/07/17 18:00:17;;;;;;;6.35;4.20;;;32.00;45.00;;;;;;5072125;28;20150;-48
2022/07/17 18:02:44;;;;;;;5.20;4.00;;;31.80;45.50;;;;;;5069988;28;20048;-47
2022/07/17 18:05:11;;;;;;;4.38;3.88;;;31.60;44.70;;;;;;5068276;28;20051;-48
2022/07/17 18:07:41;;;;;;;4.60;3.88;;;31.40;46.30;;;;;;5069614;28;20040;-49
2022/07/17 18:10:08;;;;;;;4.72;4.03;;;31.30;45.60;;;;;;5074099;28;20040;-46
2022/07/17 18:12:34;;;;;;;5.15;4.00;;;31.20;45.40;;;;;;5068933;28;20048;-53
2022/07/17 18:15:01;;;;;;;5.43;3.60;;;31.20;45.00;;;;;;5072582;28;20032;-46
2022/07/17 18:17:28;;;;;;;6.43;4.20;;;31.20;44.50;;;;;;5068164;28;20059;-50
2022/07/17 18:20:02;;;;;;;5.68;4.20;;;31.30;45.20;;;;;;5069508;28;20043;-47
2022/07/17 18:22:39;;;;;;;6.22;3.83;;;31.40;45.40;;;;;;5057854;28;20069;-47
2022/07/17 18:25:06;;;;;;;5.85;3.72;;;31.60;45.50;;;;;;5070606;28;20050;-46
2022/07/17 18:27:33;;;;;;;6.38;3.72;;;31.70;45.20;;;;;;5074242;28;20044;-49
2022/07/17 18:29:59;;;;;;;6.40;4.22;;;31.80;44.50;;;;;;5069172;28;20063;-47
2022/07/17 18:32:26;;;;;;;4.25;3.63;;;31.70;44.90;;;;;;5075683;28;20045;-50
2022/07/17 18:34:53;;;;;;;6.05;3.90;;;31.60;45.10;;;;;;5073450;28;20045;-51
2022/07/17 18:37:20;;;;;;;4.75;3.60;;;31.40;45.30;;;;;;5070177;28;20045;-47
2022/07/17 18:39:46;;;;;;;6.63;3.53;;;31.30;45.40;;;;;;5072481;28;20063;-48
2022/07/17 18:42:13;;;;;;;4.30;3.50;;;31.10;44.30;;;;;;5074096;28;20044;-49
2022/07/17 18:44:40;;;;;;;4.10;3.22;;;30.90;45.00;;;;;;5074770;28;20098;-48
2022/07/17 18:47:06;;;;;;;4.10;3.70;;;30.70;44.20;;;;;;5069147;28;20045;-50
2022/07/17 18:49:39;;;;;;;4.53;3.60;;;30.70;45.10;;;;;;5073768;28;20040;-52
2022/07/17 18:52:06;;;;;;;5.28;4.30;;;30.60;45.70;;;;;;5056361;28;20400;-50
2022/07/17 18:54:33;;;;;;;5.47;3.53;;;30.40;45.30;;;;;;5051238;28;20033;-49
2022/07/17 18:57:00;;;;;;;4.65;3.55;;;30.30;45.40;;;;;;5059436;28;20036;-48
2022/07/17 18:59:26;;;;;;;5.82;3.60;;;30.20;45.40;;;;;;5057050;28;20041;-51
2022/07/17 19:01:53;;;;;;;5.88;3.55;;;30.00;44.80;;;;;;5057820;28;20079;-50
2022/07/17 19:04:20;;;;;;;5.18;3.72;;;29.90;45.60;;;;;;5053798;28;20037;-46
2022/07/17 19:06:47;;;;;;;5.85;4.03;;;29.80;46.40;;;;;;5066062;28;20037;-49
2022/07/17 19:09:14;;;;;;;6.00;3.40;;;29.80;46.70;;;;;;5051906;28;20049;-49
2022/07/17 19:11:40;;;;;;;4.82;3.80;;;29.70;46.30;;;;;;5053387;28;20091;-47
2022/07/17 19:14:09;;;;;;;5.47;3.50;;;29.50;46.20;;;;;;5054615;28;20045;-50
2022/07/17 19:16:36;;;;;;;5.28;3.60;;;29.40;46.30;;;;;;5051139;28;20127;-50
2022/07/17 19:19:03;;;;;;;4.47;3.70;;;29.30;46.10;;;;;;5053014;28;20041;-50
2022/07/17 19:21:29;;;;;;;5.15;3.47;;;29.20;47.00;;;;;;5055623;28;20091;-50
2022/07/17 19:23:56;;;;;;;3.92;3.15;;;29.00;46.50;;;;;;5055194;28;20112;-48
2022/07/17 19:26:23;;;;;;;4.38;3.55;;;28.90;46.90;;;;;;5052960;28;20048;-48
2022/07/17 19:28:52;;;;;;;8.35;3.47;;;28.80;47.70;;;;;;5053861;28;20512;-51
2022/07/17 19:31:19;;;;;;;5.60;3.80;;;28.60;47.50;;;;;;5055187;28;20047;-48
2022/07/17 19:33:50;;;;;;;6.82;3.60;;;28.50;47.70;;;;;;5058213;28;20040;-49
2022/07/17 19:36:17;;;;;;;4.85;4.10;;;28.30;48.30;;;;;;5054704;28;20041;-48
2022/07/17 19:38:45;;;;;;;6.32;3.75;;;28.20;48.30;;;;;;5054471;28;20049;-47
2022/07/17 19:41:11;;;;;;;6.38;3.95;;;28.00;48.80;;;;;;5060332;28;20037;-50
2022/07/17 19:43:38;;;;;;;5.55;3.97;;;27.90;48.90;;;;;;5054764;28;20041;-46
2022/07/17 19:46:05;;;;;;;4.95;4.07;;;27.80;49.10;;;;;;5054169;28;20087;-50
2022/07/17 19:48:32;;;;;;;6.10;4.28;;;27.60;49.40;;;;;;5054657;28;20032;-50
2022/07/17 19:50:58;;;;;;;5.97;4.13;;;27.50;49.60;;;;;;5054703;28;20483;-45
2022/07/17 19:53:25;;;;;;;4.30;3.83;;;27.40;49.50;;;;;;5054973;28;20053;-51
2022/07/17 19:58:37;;;;;;;5.60;3.95;;;27.30;50.20;;;;;;5054563;28;20495;-48
2022/07/17 20:01:04;;;;;;;5.35;3.85;;;27.10;50.40;;;;;;5048338;28;20098;-48
2022/07/17 20:03:31;;;;;;;5.35;3.95;;;27.00;50.20;;;;;;5058703;28;20090;-49
2022/07/17 20:05:58;;;;;;;6.68;3.88;;;26.90;50.70;;;;;;5050461;28;20082;-47
2022/07/17 20:08:24;;;;;;;6.82;4.18;;;26.70;51.00;;;;;;5047450;28;20064;-48
2022/07/17 20:10:51;;;;;;;6.78;4.32;;;26.60;51.10;;;;;;5057574;28;20052;-48
2022/07/17 20:13:18;;;;;;;5.68;4.18;;;26.50;51.40;;;;;;5051555;28;20044;-48
2022/07/17 20:15:45;;;;;;;6.10;4.07;;;26.50;52.20;;;;;;5059038;28;20503;-46
2022/07/17 20:18:12;;;;;;;5.13;4.30;;;26.40;51.90;;;;;;5057643;28;20350;-51
2022/07/17 20:20:39;;;;;;;9.13;6.05;;;26.30;52.40;;;;;;5053368;28;20041;-46
2022/07/17 20:23:06;;;;;;;9.02;5.70;;;26.20;52.60;;;;;;5050660;28;20029;-50
2022/07/17 20:25:33;;;;;;;7.70;4.53;;;26.10;52.70;;;;;;5047114;28;20549;-52
2022/07/17 20:28:00;;;;;;;9.38;4.80;;;26.10;53.10;;;;;;5053459;28;20040;-48
2022/07/17 20:30:27;;;;;;;12.13;4.63;;;26.00;53.20;;;;;;5049874;28;20061;-52
2022/07/17 20:32:53;;;;;;;9.43;4.45;;;25.90;53.30;;;;;;5051263;28;20044;-46
2022/07/17 20:35:20;;;;;;;8.82;4.75;;;25.80;53.70;;;;;;5051944;28;20114;-50
2022/07/17 20:37:47;;;;;;;9.27;5.07;;;25.70;53.70;;;;;;5052879;28;20044;-47
2022/07/17 20:40:16;;;;;;;7.28;5.07;;;25.60;54.00;;;;;;5051586;28;20041;-54
2022/07/17 20:42:43;;;;;;;7.90;4.88;;;25.50;54.10;;;;;;5052579;28;20040;-47
2022/07/17 20:45:10;;;;;;;11.07;5.18;;;25.40;54.30;;;;;;5052949;28;20095;-46
2022/07/17 20:47:37;;;;;;;7.57;5.22;;;25.40;54.80;;;;;;5054372;28;20041;-49
2022/07/17 20:50:04;;;;;;;6.75;4.93;;;25.30;55.10;;;;;;5051837;28;20072;-48
2022/07/17 20:52:30;;;;;;;7.72;4.60;;;25.20;55.20;;;;;;5053199;28;20044;-45
2022/07/17 20:54:57;;;;;;;6.40;4.60;;;25.20;55.60;;;;;;5051588;28;20045;-48
2022/07/17 20:57:24;;;;;;;7.57;4.93;;;25.10;55.90;;;;;;5035238;28;20048;-51
2022/07/17 20:59:51;;;;;;;5.57;4.45;;;25.00;55.90;;;;;;5051536;28;20438;-47
2022/07/17 21:02:18;;;;;;;6.13;4.20;;;25.00;56.40;;;;;;5048155;28;20052;-53
2022/07/17 21:04:44;;;;;;;9.80;4.65;;;24.90;56.50;;;;;;5053086;28;20037;-47
2022/07/17 21:07:11;;;;;;;8.77;4.57;;;24.80;57.00;;;;;;5047518;28;20045;-51
2022/07/17 21:09:38;;;;;;;6.15;4.40;;;24.70;57.10;;;;;;5054038;28;20079;-52
2022/07/17 21:12:05;;;;;;;6.95;4.95;;;24.60;57.30;;;;;;5050143;28;20052;-52
2022/07/17 21:14:31;;;;;;;5.53;4.15;;;24.60;57.70;;;;;;5050318;28;20072;-49
2022/07/17 21:16:58;;;;;;;5.90;4.50;;;24.50;57.80;;;;;;5052715;28;20051;-49
2022/07/17 21:19:25;;;;;;;7.28;4.40;;;24.40;58.00;;;;;;5052888;28;20442;-46
2022/07/17 21:21:55;;;;;;;5.90;4.30;;;24.30;58.40;;;;;;5051334;28;20178;-53
2022/07/17 21:24:22;;;;;;;5.50;4.60;;;24.20;58.80;;;;;;5064822;28;20041;-48
2022/07/17 21:26:50;;;;;;;6.55;4.38;;;24.10;58.80;;;;;;5066246;28;20480;-47
2022/07/17 21:29:17;;;;;;;6.28;4.50;;;24.10;58.90;;;;;;5053650;28;20037;-49
2022/07/17 21:31:43;;;;;;;8.50;4.68;;;24.00;59.00;;;;;;5052686;28;20087;-51
2022/07/17 21:34:10;;;;;;;5.40;4.10;;;24.00;59.30;;;;;;5052861;28;20033;-46
2022/07/17 21:36:37;;;;;;;7.00;4.40;;;23.90;59.30;;;;;;5052474;28;20075;-49
2022/07/17 21:39:04;;;;;;;7.82;4.43;;;23.90;59.30;;;;;;5050947;28;20099;-49
2022/07/17 21:41:30;;;;;;;7.95;4.30;;;23.80;59.60;;;;;;5045423;28;20143;-48
2022/07/17 21:43:57;;;;;;;10.80;4.75;;;23.80;59.70;;;;;;5050450;28;20043;-50
2022/07/17 21:46:24;;;;;;;10.00;4.70;;;23.70;60.40;;;;;;5051560;28;20041;-48
2022/07/17 21:48:51;;;;;;;6.60;4.70;;;23.60;60.20;;;;;;5050942;28;20049;-49
2022/07/17 21:51:18;;;;;;;6.25;4.35;;;23.60;60.40;;;;;;5048847;28;20041;-51
2022/07/17 21:53:44;;;;;;;6.78;4.82;;;23.50;60.90;;;;;;5050289;28;20045;-49
2022/07/17 21:56:11;;;;;;;5.55;4.88;;;23.40;61.30;;;;;;5052160;28;20122;-53
2022/07/17 21:58:38;;;;;;;9.48;4.90;;;23.40;62.20;;;;;;5050750;28;20443;-49
2022/07/17 22:01:05;;;;;;;7.85;4.90;;;23.30;61.60;;;;;;5052004;28;20514;-50
2022/07/17 22:03:32;;;;;;;7.47;5.32;;;23.30;61.90;;;;;;5051619;28;20040;-47
2022/07/17 22:06:01;;;;;;;7.30;4.90;;;23.20;62.10;;;;;;5050678;28;20114;-48
2022/07/17 22:08:28;;;;;;;9.10;4.97;;;23.10;62.40;;;;;;5051699;28;20045;-50
2022/07/17 22:10:55;;;;;;;8.75;5.05;;;23.10;63.30;;;;;;5052142;28;20094;-48
2022/07/17 22:13:21;;;;;;;7.30;5.20;;;23.10;62.80;;;;;;5050994;28;20455;-47
2022/07/17 22:15:48;;;;;;;7.45;4.88;;;23.00;63.10;;;;;;5051742;28;20052;-46
2022/07/17 22:18:15;;;;;;;9.88;5.43;;;23.00;62.90;;;;;;5048111;28;20045;-47
2022/07/17 22:20:42;;;;;;;6.22;4.43;;;23.00;63.10;;;;;;5030882;28;20030;-50
2022/07/17 22:23:09;;;;;;;8.30;4.40;;;22.90;63.00;;;;;;5051026;28;20098;-51
2022/07/17 22:25:35;;;;;;;8.43;4.78;;;22.90;63.10;;;;;;5052189;28;20041;-53
2022/07/17 22:28:02;;;;;;;6.88;4.85;;;22.80;63.30;;;;;;5054145;28;20041;-51
2022/07/17 22:30:29;;;;;;;6.85;4.85;;;22.80;63.30;;;;;;5055187;28;20099;-49
2022/07/17 22:32:56;;;;;;;6.95;4.55;;;22.80;63.50;;;;;;5054196;28;20492;-47
2022/07/17 22:35:23;;;;;;;7.28;4.90;;;22.70;63.80;;;;;;5055288;28;20041;-48
2022/07/17 22:37:50;;;;;;;9.80;4.75;;;22.70;63.90;;;;;;5053115;28;20045;-47
2022/07/17 22:40:16;;;;;;;6.47;4.50;;;22.60;64.00;;;;;;5055507;28;20049;-48
2022/07/17 22:42:43;;;;;;;7.65;4.80;;;22.60;64.30;;;;;;5054849;28;20052;-51
2022/07/17 22:45:10;;;;;;;8.07;4.55;;;22.60;64.40;;;;;;5054668;28;20041;-48
2022/07/17 22:47:37;;;;;;;9.15;5.32;;;22.60;64.40;;;;;;5053939;28;20235;-48
2022/07/17 22:50:03;;;;;;;11.25;5.60;;;22.50;64.30;;;;;;5055423;28;20061;-46
2022/07/17 22:52:30;;;;;;;8.38;5.03;;;22.50;64.50;;;;;;5053865;28;20120;-48
2022/07/17 22:54:57;;;;;;;7.25;4.63;;;22.50;64.90;;;;;;5054498;28;20439;-50
2022/07/17 22:57:24;;;;;;;7.45;4.72;;;22.40;65.10;;;;;;5053960;28;20052;-50
2022/07/17 22:59:50;;;;;;;8.68;4.82;;;22.40;65.30;;;;;;5055350;28;20045;-47
2022/07/17 23:02:17;;;;;;;9.82;4.78;;;22.30;65.30;;;;;;5055182;28;20045;-46
2022/07/17 23:04:48;;;;;;;13.15;5.13;;;22.30;65.30;;;;;;5055346;28;20057;-45
2022/07/17 23:07:15;;;;;;;7.10;4.57;;;22.10;65.70;;;;;;5054168;28;20065;-45
2022/07/17 23:09:41;;;;;;;6.40;5.05;;;22.20;65.30;;;;;;5055231;28;20484;-49
2022/07/17 23:12:08;;;;;;;8.88;4.85;;;22.20;65.60;;;;;;5052900;28;20069;-48
2022/07/17 23:14:35;;;;;;;8.68;5.25;;;22.20;65.80;;;;;;5055051;28;20049;-46
2022/07/17 23:17:02;;;;;;;7.90;5.18;;;22.20;65.40;;;;;;5055086;28;20442;-44
2022/07/17 23:19:28;;;;;;;10.55;4.97;;;22.20;65.80;;;;;;5055144;28;20484;-49
2022/07/17 23:21:55;;;;;;;7.10;4.47;;;22.20;65.90;;;;;;5054654;28;20060;-47
